Aeroporto :
LOGIN :

Iscrizione | Disclaimer

   EN    FR    IT 

 










Sommario :    VFR   VFR Marginale   IFR   IFR Intensivo   IFR Molto Intensivo
Visibilità : 
Base nubi : 
>= 8 km
>= 3000ft
5 / 8 km
1000 / 3000 ft
1500m / 5 km
500 / 1000 ft
800 / 1500m
200 / 500 ft
< 800m
< 200 ft
Simboli :   Temporali  Nebbia  Neve Forte  Precipitazioni Forti  Vento > 20 kt
SIGMETs :   Varie  Temporali  Ghiacco  Turbolenza  Onda orograficha  Ceneri Vulcaniche






- Altitudine del aeroporto : 36 ft
- Codice IATA : LTQ


LFAT - Le Touquet

ULTIMO METAR :
  • 141200Z AUTO 26019G30KT 230V290 9999 SCT028/// BKN036/// BKN046/// ///CB 11/06 Q0993 TEMPO 27030G50KT 4000 SHRA BECMG BKN030

METARs OBSOLETI :
  • 141130Z AUTO 24017G29KT 9000 FEW020 BKN035 BKN042 10/08 Q0993 TEMPO 27030G50KT 4000 SHRA BKN025CB
  • 141100Z AUTO 23017KT 200V260 9999 FEW009/// SCT019/// BKN034/// ///CB 08/06 Q0993 TEMPO 27030G50KT 4000 SHRAGR
  • 141030Z AUTO 27017G32KT 220V330 3100 RA BR SCT016/// SCT022/// BKN030/// ///CB 07/06 Q0994 TEMPO 27030G50KT SHRAGR
  • 141000Z AUTO 25011KT 220V280 4000 RA BR BKN019/// BKN036/// BKN058/// ///CB 09/07 Q0993 TEMPO 27030G50KT
  • 140930Z AUTO 26012KT 220V300 9999 FEW030/// BKN044/// BKN054/// ///TCU 10/05 Q0993 TEMPO 27030G50KT 4000 SHRA

TAF TAF LFAT
Valido dal 14 a 12 ore il 14 a 21 ore UTC


141100Z 1412/1421 25015KT 9999 BKN030
TEMPO 1412/1413 27030G50KT 4000 SHRA BKN025CB
TEMPO 1413/1417 25020G30KT
BECMG 1417/1419 19012KT
ATIS : +33 3 21 06 62 84



MetMap, La meteo Aeronautica in un colpo d'occhio ! - Copyright ORBIFLY Dicembre 2007 - Disclaimer

ORBIFLY MET'MAP TEAM :

Programmazione e sviluppo : Alexandra Zaïnal
Concezione : Baudouin d'Aumeries
Aiuto per la programmazione : Marc-Olivier Méhu
Supporto tecnico e logistico : Manuel Goepfert
Aiuto per la traduzione : Arnaldo La Scala

Contatto : metmap@orbifly.com




FONTI E CREDITI :

   NOAA